createdAt,value
2023-04-22T00:00:50.383Z,11.30
2023-04-22T00:12:50.858Z,11.60
2023-04-22T00:24:51.290Z,11.30
2023-04-22T00:36:51.798Z,12.40
2023-04-22T00:48:52.514Z,11.10
2023-04-22T01:00:52.749Z,11.30
2023-04-22T01:12:53.120Z,12.70
2023-04-22T01:24:53.595Z,13.60
2023-04-22T01:36:54.019Z,13.30
2023-04-22T01:48:54.464Z,12.20
2023-04-22T02:00:54.953Z,12.10
2023-04-22T02:12:55.381Z,12.90
2023-04-22T02:24:55.863Z,13.40
2023-04-22T02:36:56.291Z,13.40
2023-04-22T02:48:56.743Z,13.90
2023-04-22T03:00:57.272Z,14.10
2023-04-22T03:12:57.673Z,12.90
2023-04-22T03:24:58.109Z,13.40
2023-04-22T03:36:58.536Z,12.10
2023-04-22T03:48:59.048Z,11.70
2023-04-22T04:00:59.464Z,15.50
2023-04-22T04:12:59.887Z,14.20
2023-04-22T04:25:00.375Z,13.80
2023-04-22T04:37:00.846Z,16.80
2023-04-22T04:49:01.244Z,16.10
2023-04-22T05:01:01.697Z,16.40
2023-04-22T05:13:04.264Z,14.20
2023-04-22T05:25:02.616Z,21.40
2023-04-22T05:37:03.096Z,17.70
2023-04-22T05:49:03.532Z,14.70
2023-04-22T06:01:03.981Z,11.60
2023-04-22T06:13:04.445Z,10.50
2023-04-22T06:25:04.896Z,9.10
2023-04-22T06:37:05.369Z,9.20
2023-04-22T06:49:05.789Z,9.00
2023-04-22T07:01:06.261Z,7.90
2023-04-22T07:13:06.678Z,7.70
2023-04-22T07:25:07.163Z,5.60
2023-04-22T07:37:07.646Z,5.00
2023-04-22T07:49:08.063Z,4.80
2023-04-22T08:01:08.533Z,4.70
2023-04-22T08:13:08.954Z,4.90
2023-04-22T08:25:09.425Z,4.60
2023-04-22T08:37:09.919Z,4.60
2023-04-22T08:49:10.355Z,4.50
2023-04-22T09:01:10.859Z,4.20
2023-04-22T09:13:11.257Z,4.10
2023-04-22T09:25:11.714Z,4.20
2023-04-22T09:37:12.134Z,4.30
2023-04-22T09:49:12.605Z,4.10
2023-04-22T10:01:13.101Z,3.80
2023-04-22T10:13:13.535Z,3.60
2023-04-22T10:25:14.019Z,3.50
2023-04-22T10:37:14.402Z,3.30
2023-04-22T10:49:15.336Z,3.40
2023-04-22T11:01:15.349Z,3.80
2023-04-22T11:13:15.780Z,4.10
2023-04-22T11:25:16.244Z,3.40
2023-04-22T11:37:16.722Z,3.70
2023-04-22T11:49:17.157Z,3.60
2023-04-22T12:01:17.595Z,3.40
2023-04-22T12:13:18.074Z,3.50
2023-04-22T12:25:18.550Z,3.60
2023-04-22T12:37:19.025Z,3.60
2023-04-22T12:49:19.430Z,3.40
2023-04-22T13:01:19.909Z,3.30
2023-04-22T13:13:20.351Z,3.10
2023-04-22T13:25:20.848Z,3.00
2023-04-22T13:37:21.271Z,2.90
2023-04-22T13:49:21.713Z,3.20
2023-04-22T14:01:22.174Z,3.30
2023-04-22T14:13:22.660Z,3.30
2023-04-22T14:25:23.119Z,3.00
2023-04-22T14:37:24.090Z,2.70
2023-04-22T14:49:23.995Z,2.90
2023-04-22T15:01:24.497Z,2.80
2023-04-22T15:13:24.905Z,2.90
2023-04-22T15:25:25.380Z,2.90
2023-04-22T15:37:25.834Z,2.60
2023-04-22T15:49:26.275Z,2.70
2023-04-22T16:01:26.775Z,2.80
2023-04-22T16:13:27.161Z,3.20
2023-04-22T16:25:27.646Z,3.40
2023-04-22T16:37:28.129Z,4.10
2023-04-22T16:49:28.577Z,4.00
2023-04-22T17:01:29.050Z,4.10
2023-04-22T17:13:29.456Z,4.10
2023-04-22T17:25:29.923Z,3.40
2023-04-22T17:37:30.361Z,4.00
2023-04-22T17:49:30.821Z,4.10
2023-04-22T18:01:31.309Z,4.20
2023-04-22T18:13:31.760Z,3.90
2023-04-22T18:25:32.187Z,4.60
2023-04-22T18:37:32.642Z,4.50
2023-04-22T18:49:33.114Z,4.80
2023-04-22T19:01:33.641Z,5.10
2023-04-22T19:13:34.008Z,4.70
2023-04-22T19:25:34.460Z,5.80
2023-04-22T19:37:35.007Z,7.20
2023-04-22T19:49:35.399Z,7.00
2023-04-22T20:01:35.877Z,6.80
2023-04-22T20:13:36.288Z,8.50
2023-04-22T20:25:36.749Z,8.30
2023-04-22T20:37:37.247Z,8.50
2023-04-22T20:49:37.635Z,8.10
2023-04-22T21:01:38.225Z,8.30
2023-04-22T21:13:38.566Z,16.50
2023-04-22T21:25:39.028Z,11.50
2023-04-22T21:37:39.476Z,10.40
2023-04-22T21:49:39.941Z,10.20
2023-04-22T22:01:40.398Z,9.30
2023-04-22T22:13:40.847Z,12.40
2023-04-22T22:25:41.275Z,8.40
2023-04-22T22:37:41.742Z,7.70
2023-04-22T22:49:42.179Z,8.90
2023-04-22T23:01:42.687Z,8.50
2023-04-22T23:13:43.067Z,10.40
2023-04-22T23:25:43.533Z,7.80
2023-04-22T23:37:43.999Z,8.20
2023-04-22T23:49:44.467Z,8.50
